sensor_id;sensor_type;location;lat;lon;timestamp;temperature;humidity
46378;DHT22;32083;47.360;9.650;2023-07-28T00:00:57;16.50;99.90
46378;DHT22;32083;47.360;9.650;2023-07-28T00:03:23;16.40;99.60
46378;DHT22;32083;47.360;9.650;2023-07-28T00:06:08;16.40;99.90
46378;DHT22;32083;47.360;9.650;2023-07-28T00:08:36;16.30;99.90
46378;DHT22;32083;47.360;9.650;2023-07-28T00:11:09;16.30;99.90
46378;DHT22;32083;47.360;9.650;2023-07-28T00:13:35;16.20;99.90
46378;DHT22;32083;47.360;9.650;2023-07-28T00:16:09;16.10;99.90
46378;DHT22;32083;47.360;9.650;2023-07-28T00:18:41;16.10;99.90
46378;DHT22;32083;47.360;9.650;2023-07-28T00:21:14;16.10;99.90
46378;DHT22;32083;47.360;9.650;2023-07-28T00:23:46;16.10;99.90
46378;DHT22;32083;47.360;9.650;2023-07-28T00:26:18;16.10;99.90
46378;DHT22;32083;47.360;9.650;2023-07-28T00:28:48;16.10;99.90
46378;DHT22;32083;47.360;9.650;2023-07-28T00:31:23;16.00;99.90
46378;DHT22;32083;47.360;9.650;2023-07-28T00:33:54;16.00;99.90
46378;DHT22;32083;47.360;9.650;2023-07-28T00:36:24;16.00;99.90
46378;DHT22;32083;47.360;9.650;2023-07-28T00:38:53;15.90;99.90
46378;DHT22;32083;47.360;9.650;2023-07-28T00:41:23;15.90;99.90
46378;DHT22;32083;47.360;9.650;2023-07-28T00:43:52;15.80;99.90
46378;DHT22;32083;47.360;9.650;2023-07-28T00:46:20;15.80;99.90
46378;DHT22;32083;47.360;9.650;2023-07-28T00:48:46;15.80;99.90
46378;DHT22;32083;47.360;9.650;2023-07-28T00:51:21;15.80;99.90
46378;DHT22;32083;47.360;9.650;2023-07-28T00:53:58;15.70;99.90
46378;DHT22;32083;47.360;9.650;2023-07-28T00:56:54;15.70;99.90
46378;DHT22;32083;47.360;9.650;2023-07-28T00:59:34;15.70;99.90
46378;DHT22;32083;47.360;9.650;2023-07-28T01:02:12;15.70;99.90
46378;DHT22;32083;47.360;9.650;2023-07-28T01:04:43;15.70;99.90
46378;DHT22;32083;47.360;9.650;2023-07-28T01:10:02;15.60;99.90
46378;DHT22;32083;47.360;9.650;2023-07-28T01:12:30;15.50;99.90
46378;DHT22;32083;47.360;9.650;2023-07-28T01:14:59;15.40;99.90
46378;DHT22;32083;47.360;9.650;2023-07-28T01:17:25;15.40;99.90
46378;DHT22;32083;47.360;9.650;2023-07-28T01:19:51;15.40;99.90
46378;DHT22;32083;47.360;9.650;2023-07-28T01:22:48;15.30;99.90
46378;DHT22;32083;47.360;9.650;2023-07-28T01:28:36;15.40;99.90
46378;DHT22;32083;47.360;9.650;2023-07-28T01:31:09;15.40;99.90
46378;DHT22;32083;47.360;9.650;2023-07-28T01:33:40;15.50;99.90
46378;DHT22;32083;47.360;9.650;2023-07-28T01:36:15;15.40;99.90
46378;DHT22;32083;47.360;9.650;2023-07-28T01:38:41;15.40;99.90
46378;DHT22;32083;47.360;9.650;2023-07-28T01:41:07;15.50;99.90
46378;DHT22;32083;47.360;9.650;2023-07-28T01:43:32;15.60;99.90
46378;DHT22;32083;47.360;9.650;2023-07-28T01:45:58;15.70;99.90
46378;DHT22;32083;47.360;9.650;2023-07-28T01:48:27;15.80;99.80
46378;DHT22;32083;47.360;9.650;2023-07-28T01:50:53;15.80;99.90
46378;DHT22;32083;47.360;9.650;2023-07-28T01:53:20;15.80;99.90
46378;DHT22;32083;47.360;9.650;2023-07-28T01:55:46;15.80;99.90
46378;DHT22;32083;47.360;9.650;2023-07-28T01:58:12;15.80;99.90
46378;DHT22;32083;47.360;9.650;2023-07-28T02:00:38;15.80;99.90
46378;DHT22;32083;47.360;9.650;2023-07-28T02:03:04;15.80;99.90
46378;DHT22;32083;47.360;9.650;2023-07-28T02:05:32;15.80;99.90
46378;DHT22;32083;47.360;9.650;2023-07-28T02:07:58;15.70;99.90
46378;DHT22;32083;47.360;9.650;2023-07-28T02:10:25;15.70;99.90
46378;DHT22;32083;47.360;9.650;2023-07-28T02:12:51;15.70;99.90
46378;DHT22;32083;47.360;9.650;2023-07-28T02:15:17;15.70;99.90
46378;DHT22;32083;47.360;9.650;2023-07-28T02:17:43;15.80;99.90
46378;DHT22;32083;47.360;9.650;2023-07-28T02:20:09;15.80;99.90
46378;DHT22;32083;47.360;9.650;2023-07-28T02:22:38;15.80;99.90
46378;DHT22;32083;47.360;9.650;2023-07-28T02:25:05;15.90;99.90
46378;DHT22;32083;47.360;9.650;2023-07-28T02:27:31;15.90;99.90
46378;DHT22;32083;47.360;9.650;2023-07-28T02:29:56;15.90;99.90
46378;DHT22;32083;47.360;9.650;2023-07-28T02:32:22;16.00;99.90
46378;DHT22;32083;47.360;9.650;2023-07-28T02:34:50;16.10;99.90
46378;DHT22;32083;47.360;9.650;2023-07-28T02:37:16;16.10;99.90
46378;DHT22;32083;47.360;9.650;2023-07-28T02:39:42;16.20;99.90
46378;DHT22;32083;47.360;9.650;2023-07-28T02:42:08;16.30;99.90
46378;DHT22;32083;47.360;9.650;2023-07-28T02:44:34;16.30;99.90
46378;DHT22;32083;47.360;9.650;2023-07-28T02:47:00;16.30;99.90
46378;DHT22;32083;47.360;9.650;2023-07-28T02:49:26;16.40;99.70
46378;DHT22;32083;47.360;9.650;2023-07-28T02:51:51;16.50;99.20
46378;DHT22;32083;47.360;9.650;2023-07-28T02:54:18;16.60;98.70
46378;DHT22;32083;47.360;9.650;2023-07-28T02:56:44;16.70;99.00
46378;DHT22;32083;47.360;9.650;2023-07-28T02:59:10;16.70;99.00
46378;DHT22;32083;47.360;9.650;2023-07-28T03:01:35;16.80;98.30
46378;DHT22;32083;47.360;9.650;2023-07-28T03:04:02;16.80;97.50
46378;DHT22;32083;47.360;9.650;2023-07-28T03:06:28;16.90;97.70
46378;DHT22;32083;47.360;9.650;2023-07-28T03:08:54;16.90;98.30
46378;DHT22;32083;47.360;9.650;2023-07-28T03:11:20;16.80;98.90
46378;DHT22;32083;47.360;9.650;2023-07-28T03:13:46;16.80;99.10
46378;DHT22;32083;47.360;9.650;2023-07-28T03:16:12;16.70;99.10
46378;DHT22;32083;47.360;9.650;2023-07-28T03:18:37;16.70;99.50
46378;DHT22;32083;47.360;9.650;2023-07-28T03:21:03;16.60;99.80
46378;DHT22;32083;47.360;9.650;2023-07-28T03:23:29;16.60;99.70
46378;DHT22;32083;47.360;9.650;2023-07-28T03:25:57;16.70;99.50
46378;DHT22;32083;47.360;9.650;2023-07-28T03:28:23;16.70;99.30
46378;DHT22;32083;47.360;9.650;2023-07-28T03:30:48;16.70;99.30
46378;DHT22;32083;47.360;9.650;2023-07-28T03:33:14;16.90;99.00
46378;DHT22;32083;47.360;9.650;2023-07-28T03:35:40;16.90;98.30
46378;DHT22;32083;47.360;9.650;2023-07-28T03:38:06;17.00;98.40
46378;DHT22;32083;47.360;9.650;2023-07-28T03:40:31;17.00;98.40
46378;DHT22;32083;47.360;9.650;2023-07-28T03:42:57;17.10;98.00
46378;DHT22;32083;47.360;9.650;2023-07-28T03:45:23;17.20;98.40
46378;DHT22;32083;47.360;9.650;2023-07-28T03:47:49;17.20;97.80
46378;DHT22;32083;47.360;9.650;2023-07-28T03:50:15;17.30;97.40
46378;DHT22;32083;47.360;9.650;2023-07-28T03:52:40;17.30;97.40
46378;DHT22;32083;47.360;9.650;2023-07-28T03:55:09;17.40;97.10
46378;DHT22;32083;47.360;9.650;2023-07-28T03:57:35;17.50;96.80
46378;DHT22;32083;47.360;9.650;2023-07-28T04:00:01;17.50;96.00
46378;DHT22;32083;47.360;9.650;2023-07-28T04:02:26;17.60;96.20
46378;DHT22;32083;47.360;9.650;2023-07-28T04:04:56;17.70;96.20
46378;DHT22;32083;47.360;9.650;2023-07-28T04:07:22;17.70;96.00
46378;DHT22;32083;47.360;9.650;2023-07-28T04:09:51;17.70;96.50
46378;DHT22;32083;47.360;9.650;2023-07-28T04:12:17;17.70;96.70
46378;DHT22;32083;47.360;9.650;2023-07-28T04:14:43;17.60;97.00
46378;DHT22;32083;47.360;9.650;2023-07-28T04:17:09;17.60;97.60
46378;DHT22;32083;47.360;9.650;2023-07-28T04:19:37;17.50;98.00
46378;DHT22;32083;47.360;9.650;2023-07-28T04:22:05;17.40;98.60
46378;DHT22;32083;47.360;9.650;2023-07-28T04:24:31;17.30;99.30
46378;DHT22;32083;47.360;9.650;2023-07-28T04:27:00;17.30;99.10
46378;DHT22;32083;47.360;9.650;2023-07-28T04:29:26;17.30;98.70
46378;DHT22;32083;47.360;9.650;2023-07-28T04:31:53;17.40;98.30
46378;DHT22;32083;47.360;9.650;2023-07-28T04:34:19;17.40;98.40
46378;DHT22;32083;47.360;9.650;2023-07-28T04:36:45;17.50;98.80
46378;DHT22;32083;47.360;9.650;2023-07-28T04:39:11;17.50;98.60
46378;DHT22;32083;47.360;9.650;2023-07-28T04:41:37;17.50;99.20
46378;DHT22;32083;47.360;9.650;2023-07-28T04:44:04;17.50;99.20
46378;DHT22;32083;47.360;9.650;2023-07-28T04:46:30;17.50;99.10
46378;DHT22;32083;47.360;9.650;2023-07-28T04:48:57;17.40;99.10
46378;DHT22;32083;47.360;9.650;2023-07-28T04:51:29;17.40;99.60
46378;DHT22;32083;47.360;9.650;2023-07-28T04:53:57;17.40;99.60
46378;DHT22;32083;47.360;9.650;2023-07-28T04:56:23;17.40;99.70
46378;DHT22;32083;47.360;9.650;2023-07-28T04:58:48;17.40;99.90
46378;DHT22;32083;47.360;9.650;2023-07-28T05:01:15;17.30;99.90
46378;DHT22;32083;47.360;9.650;2023-07-28T05:03:45;17.40;99.90
46378;DHT22;32083;47.360;9.650;2023-07-28T05:06:15;17.40;99.90
46378;DHT22;32083;47.360;9.650;2023-07-28T05:08:44;17.40;99.90
46378;DHT22;32083;47.360;9.650;2023-07-28T05:11:11;17.40;99.90
46378;DHT22;32083;47.360;9.650;2023-07-28T05:13:37;17.40;99.90
46378;DHT22;32083;47.360;9.650;2023-07-28T05:16:06;17.40;99.90
46378;DHT22;32083;47.360;9.650;2023-07-28T05:19:00;17.50;99.90
46378;DHT22;32083;47.360;9.650;2023-07-28T05:21:27;17.50;99.90
46378;DHT22;32083;47.360;9.650;2023-07-28T05:23:54;17.50;99.90
46378;DHT22;32083;47.360;9.650;2023-07-28T05:26:19;17.90;99.90
46378;DHT22;32083;47.360;9.650;2023-07-28T05:28:45;18.20;99.90
46378;DHT22;32083;47.360;9.650;2023-07-28T05:31:11;18.20;99.90
46378;DHT22;32083;47.360;9.650;2023-07-28T05:33:39;18.50;99.90
46378;DHT22;32083;47.360;9.650;2023-07-28T05:36:05;18.70;99.80
46378;DHT22;32083;47.360;9.650;2023-07-28T05:38:31;18.90;99.90
46378;DHT22;32083;47.360;9.650;2023-07-28T05:40:57;19.00;99.80
46378;DHT22;32083;47.360;9.650;2023-07-28T05:43:23;18.80;99.70
46378;DHT22;32083;47.360;9.650;2023-07-28T05:45:49;18.60;99.00
46378;DHT22;32083;47.360;9.650;2023-07-28T05:48:15;18.60;99.00
46378;DHT22;32083;47.360;9.650;2023-07-28T05:50:40;18.50;99.20
46378;DHT22;32083;47.360;9.650;2023-07-28T05:53:06;18.50;99.10
46378;DHT22;32083;47.360;9.650;2023-07-28T05:55:32;18.50;99.90
46378;DHT22;32083;47.360;9.650;2023-07-28T05:57:58;18.50;99.90
46378;DHT22;32083;47.360;9.650;2023-07-28T06:00:24;18.60;99.70
46378;DHT22;32083;47.360;9.650;2023-07-28T06:02:50;18.50;99.90
46378;DHT22;32083;47.360;9.650;2023-07-28T06:05:15;18.70;99.90
46378;DHT22;32083;47.360;9.650;2023-07-28T06:07:41;18.80;99.90
46378;DHT22;32083;47.360;9.650;2023-07-28T06:10:07;18.80;99.90
46378;DHT22;32083;47.360;9.650;2023-07-28T06:12:33;18.80;99.90
46378;DHT22;32083;47.360;9.650;2023-07-28T06:14:59;18.80;99.90
46378;DHT22;32083;47.360;9.650;2023-07-28T06:17:25;18.80;99.90
46378;DHT22;32083;47.360;9.650;2023-07-28T06:19:52;18.70;99.90
46378;DHT22;32083;47.360;9.650;2023-07-28T06:22:18;18.70;99.90
46378;DHT22;32083;47.360;9.650;2023-07-28T06:24:44;18.70;99.90
46378;DHT22;32083;47.360;9.650;2023-07-28T06:27:09;18.70;99.90
46378;DHT22;32083;47.360;9.650;2023-07-28T06:29:35;18.70;99.90
46378;DHT22;32083;47.360;9.650;2023-07-28T06:32:01;18.70;99.90
46378;DHT22;32083;47.360;9.650;2023-07-28T06:34:30;18.70;99.90
46378;DHT22;32083;47.360;9.650;2023-07-28T06:36:56;18.70;99.90
46378;DHT22;32083;47.360;9.650;2023-07-28T06:39:23;18.80;99.90
46378;DHT22;32083;47.360;9.650;2023-07-28T06:41:50;18.90;99.90
46378;DHT22;32083;47.360;9.650;2023-07-28T06:44:16;19.00;99.90
46378;DHT22;32083;47.360;9.650;2023-07-28T06:46:41;19.10;99.90
46378;DHT22;32083;47.360;9.650;2023-07-28T06:49:07;19.00;99.90
46378;DHT22;32083;47.360;9.650;2023-07-28T06:51:33;19.00;99.90
46378;DHT22;32083;47.360;9.650;2023-07-28T06:53:59;19.00;99.90
46378;DHT22;32083;47.360;9.650;2023-07-28T06:56:25;19.00;99.90
46378;DHT22;32083;47.360;9.650;2023-07-28T06:58:51;19.00;99.90
46378;DHT22;32083;47.360;9.650;2023-07-28T07:01:16;19.00;99.90
46378;DHT22;32083;47.360;9.650;2023-07-28T07:03:43;19.10;99.90
46378;DHT22;32083;47.360;9.650;2023-07-28T07:06:09;19.10;99.90
46378;DHT22;32083;47.360;9.650;2023-07-28T07:08:35;19.10;99.90
46378;DHT22;32083;47.360;9.650;2023-07-28T07:11:00;19.10;99.90
46378;DHT22;32083;47.360;9.650;2023-07-28T07:13:26;19.00;99.90
46378;DHT22;32083;47.360;9.650;2023-07-28T07:15:52;19.10;99.90
46378;DHT22;32083;47.360;9.650;2023-07-28T07:18:18;19.10;99.90
46378;DHT22;32083;47.360;9.650;2023-07-28T07:20:43;19.10;99.90
46378;DHT22;32083;47.360;9.650;2023-07-28T07:23:10;19.20;99.90
46378;DHT22;32083;47.360;9.650;2023-07-28T07:25:36;19.30;99.90
46378;DHT22;32083;47.360;9.650;2023-07-28T07:28:01;19.40;99.90
46378;DHT22;32083;47.360;9.650;2023-07-28T07:30:27;19.40;99.90
46378;DHT22;32083;47.360;9.650;2023-07-28T07:32:53;19.40;99.90
46378;DHT22;32083;47.360;9.650;2023-07-28T07:35:19;19.40;99.90
46378;DHT22;32083;47.360;9.650;2023-07-28T07:37:44;19.40;99.90
46378;DHT22;32083;47.360;9.650;2023-07-28T07:40:12;19.40;99.90
46378;DHT22;32083;47.360;9.650;2023-07-28T07:42:43;19.50;99.90
46378;DHT22;32083;47.360;9.650;2023-07-28T07:45:10;19.50;99.90
46378;DHT22;32083;47.360;9.650;2023-07-28T07:47:36;19.60;99.90
46378;DHT22;32083;47.360;9.650;2023-07-28T07:50:02;19.60;99.90
46378;DHT22;32083;47.360;9.650;2023-07-28T07:52:28;19.60;99.90
46378;DHT22;32083;47.360;9.650;2023-07-28T07:54:54;19.60;99.90
46378;DHT22;32083;47.360;9.650;2023-07-28T07:57:20;19.70;99.90
46378;DHT22;32083;47.360;9.650;2023-07-28T07:59:46;19.70;99.90
46378;DHT22;32083;47.360;9.650;2023-07-28T08:02:11;19.80;99.90
46378;DHT22;32083;47.360;9.650;2023-07-28T08:04:37;19.80;99.90
46378;DHT22;32083;47.360;9.650;2023-07-28T08:07:03;19.70;99.90
46378;DHT22;32083;47.360;9.650;2023-07-28T08:09:30;19.80;99.90
46378;DHT22;32083;47.360;9.650;2023-07-28T08:12:00;19.90;99.90
46378;DHT22;32083;47.360;9.650;2023-07-28T08:14:25;20.00;99.90
46378;DHT22;32083;47.360;9.650;2023-07-28T08:16:51;20.20;99.90
46378;DHT22;32083;47.360;9.650;2023-07-28T08:19:17;20.30;99.80
46378;DHT22;32083;47.360;9.650;2023-07-28T08:21:43;20.40;99.90
46378;DHT22;32083;47.360;9.650;2023-07-28T08:24:09;20.50;99.50
46378;DHT22;32083;47.360;9.650;2023-07-28T08:26:35;20.60;99.10
46378;DHT22;32083;47.360;9.650;2023-07-28T08:29:00;20.70;98.40
46378;DHT22;32083;47.360;9.650;2023-07-28T08:31:26;20.80;98.40
46378;DHT22;32083;47.360;9.650;2023-07-28T08:33:52;20.80;99.00
46378;DHT22;32083;47.360;9.650;2023-07-28T08:36:17;20.90;98.80
46378;DHT22;32083;47.360;9.650;2023-07-28T08:38:43;21.00;98.70
46378;DHT22;32083;47.360;9.650;2023-07-28T08:41:10;21.00;98.10
46378;DHT22;32083;47.360;9.650;2023-07-28T08:43:36;21.20;98.10
46378;DHT22;32083;47.360;9.650;2023-07-28T08:46:02;21.20;98.20
46378;DHT22;32083;47.360;9.650;2023-07-28T08:48:29;21.30;98.00
46378;DHT22;32083;47.360;9.650;2023-07-28T08:50:54;21.40;97.90
46378;DHT22;32083;47.360;9.650;2023-07-28T08:53:20;21.40;97.20
46378;DHT22;32083;47.360;9.650;2023-07-28T08:55:47;21.40;97.30
46378;DHT22;32083;47.360;9.650;2023-07-28T08:58:17;21.50;96.60
46378;DHT22;32083;47.360;9.650;2023-07-28T09:00:45;21.60;95.70
46378;DHT22;32083;47.360;9.650;2023-07-28T09:03:14;21.60;97.00
46378;DHT22;32083;47.360;9.650;2023-07-28T09:05:40;21.70;96.20
46378;DHT22;32083;47.360;9.650;2023-07-28T09:08:07;21.80;96.60
46378;DHT22;32083;47.360;9.650;2023-07-28T09:10:47;21.70;95.60
46378;DHT22;32083;47.360;9.650;2023-07-28T09:13:17;21.80;95.10
46378;DHT22;32083;47.360;9.650;2023-07-28T09:15:43;21.90;96.40
46378;DHT22;32083;47.360;9.650;2023-07-28T09:18:16;22.00;95.50
46378;DHT22;32083;47.360;9.650;2023-07-28T09:20:42;22.00;96.60
46378;DHT22;32083;47.360;9.650;2023-07-28T09:23:09;22.10;96.80
46378;DHT22;32083;47.360;9.650;2023-07-28T09:25:36;22.10;95.80
46378;DHT22;32083;47.360;9.650;2023-07-28T09:28:03;22.10;95.10
46378;DHT22;32083;47.360;9.650;2023-07-28T09:30:46;22.10;96.30
46378;DHT22;32083;47.360;9.650;2023-07-28T09:33:13;22.10;96.50
46378;DHT22;32083;47.360;9.650;2023-07-28T09:35:49;22.30;95.90
46378;DHT22;32083;47.360;9.650;2023-07-28T09:38:15;22.30;95.30
46378;DHT22;32083;47.360;9.650;2023-07-28T09:40:42;22.30;95.10
46378;DHT22;32083;47.360;9.650;2023-07-28T09:43:14;22.50;95.60
46378;DHT22;32083;47.360;9.650;2023-07-28T09:45:40;22.60;94.90
46378;DHT22;32083;47.360;9.650;2023-07-28T09:48:10;22.60;95.80
46378;DHT22;32083;47.360;9.650;2023-07-28T09:50:40;22.70;95.50
46378;DHT22;32083;47.360;9.650;2023-07-28T09:53:09;22.70;95.40
46378;DHT22;32083;47.360;9.650;2023-07-28T09:55:38;22.80;95.30
46378;DHT22;32083;47.360;9.650;2023-07-28T09:58:05;22.80;95.20
46378;DHT22;32083;47.360;9.650;2023-07-28T10:00:33;22.70;95.80
46378;DHT22;32083;47.360;9.650;2023-07-28T10:03:00;22.70;95.50
46378;DHT22;32083;47.360;9.650;2023-07-28T10:05:27;22.70;95.40
46378;DHT22;32083;47.360;9.650;2023-07-28T10:07:53;22.80;95.60
46378;DHT22;32083;47.360;9.650;2023-07-28T10:10:19;22.90;95.40
46378;DHT22;32083;47.360;9.650;2023-07-28T10:12:53;23.00;95.10
46378;DHT22;32083;47.360;9.650;2023-07-28T10:15:21;22.90;94.60
46378;DHT22;32083;47.360;9.650;2023-07-28T10:17:58;23.00;95.20
46378;DHT22;32083;47.360;9.650;2023-07-28T10:20:36;23.00;94.80
46378;DHT22;32083;47.360;9.650;2023-07-28T10:25:59;23.30;95.30
46378;DHT22;32083;47.360;9.650;2023-07-28T10:28:48;23.40;94.90
46378;DHT22;32083;47.360;9.650;2023-07-28T10:31:33;23.40;95.10
46378;DHT22;32083;47.360;9.650;2023-07-28T10:34:21;23.60;95.20
46378;DHT22;32083;47.360;9.650;2023-07-28T10:37:00;23.70;95.50
46378;DHT22;32083;47.360;9.650;2023-07-28T10:39:34;23.90;94.70
46378;DHT22;32083;47.360;9.650;2023-07-28T10:42:01;24.00;95.40
46378;DHT22;32083;47.360;9.650;2023-07-28T10:44:50;24.00;95.30
46378;DHT22;32083;47.360;9.650;2023-07-28T10:47:40;24.30;94.60
46378;DHT22;32083;47.360;9.650;2023-07-28T10:57:50;24.50;93.40
46378;DHT22;32083;47.360;9.650;2023-07-28T11:00:21;24.70;93.00
46378;DHT22;32083;47.360;9.650;2023-07-28T11:02:58;24.90;93.20
46378;DHT22;32083;47.360;9.650;2023-07-28T11:05:27;24.90;92.40
46378;DHT22;32083;47.360;9.650;2023-07-28T11:08:01;24.90;91.50
46378;DHT22;32083;47.360;9.650;2023-07-28T11:10:31;25.00;92.10
46378;DHT22;32083;47.360;9.650;2023-07-28T11:13:01;25.10;92.20
46378;DHT22;32083;47.360;9.650;2023-07-28T11:15:27;25.20;91.70
46378;DHT22;32083;47.360;9.650;2023-07-28T11:18:06;25.20;92.50
46378;DHT22;32083;47.360;9.650;2023-07-28T11:20:40;25.30;92.20
46378;DHT22;32083;47.360;9.650;2023-07-28T11:23:31;25.20;92.40
46378;DHT22;32083;47.360;9.650;2023-07-28T11:26:08;25.20;91.70
46378;DHT22;32083;47.360;9.650;2023-07-28T11:28:40;25.20;90.90
46378;DHT22;32083;47.360;9.650;2023-07-28T11:31:08;25.20;91.30
46378;DHT22;32083;47.360;9.650;2023-07-28T11:33:35;25.20;91.10
46378;DHT22;32083;47.360;9.650;2023-07-28T11:36:03;25.30;91.10
46378;DHT22;32083;47.360;9.650;2023-07-28T11:38:28;25.30;91.00
46378;DHT22;32083;47.360;9.650;2023-07-28T11:40:55;25.40;90.90
46378;DHT22;32083;47.360;9.650;2023-07-28T11:43:22;25.50;90.60
46378;DHT22;32083;47.360;9.650;2023-07-28T11:45:49;25.50;90.90
46378;DHT22;32083;47.360;9.650;2023-07-28T11:48:14;25.60;91.00
46378;DHT22;32083;47.360;9.650;2023-07-28T11:50:41;25.70;90.20
46378;DHT22;32083;47.360;9.650;2023-07-28T11:53:08;25.90;90.00
46378;DHT22;32083;47.360;9.650;2023-07-28T11:55:35;26.00;90.90
46378;DHT22;32083;47.360;9.650;2023-07-28T11:58:02;26.10;91.40
46378;DHT22;32083;47.360;9.650;2023-07-28T12:00:40;26.20;92.00
46378;DHT22;32083;47.360;9.650;2023-07-28T12:03:12;26.20;90.40
46378;DHT22;32083;47.360;9.650;2023-07-28T12:05:39;26.20;89.20
46378;DHT22;32083;47.360;9.650;2023-07-28T12:08:05;26.20;90.80
46378;DHT22;32083;47.360;9.650;2023-07-28T12:10:33;26.20;91.20
46378;DHT22;32083;47.360;9.650;2023-07-28T12:13:06;26.20;91.40
46378;DHT22;32083;47.360;9.650;2023-07-28T12:15:33;26.20;90.80
46378;DHT22;32083;47.360;9.650;2023-07-28T12:20:42;26.10;90.00
46378;DHT22;32083;47.360;9.650;2023-07-28T12:23:12;26.00;90.40
46378;DHT22;32083;47.360;9.650;2023-07-28T12:25:38;26.10;91.10
46378;DHT22;32083;47.360;9.650;2023-07-28T12:28:05;26.10;90.60
46378;DHT22;32083;47.360;9.650;2023-07-28T12:30:34;26.10;90.90
46378;DHT22;32083;47.360;9.650;2023-07-28T12:33:00;26.10;90.80
46378;DHT22;32083;47.360;9.650;2023-07-28T12:35:26;26.10;91.30
46378;DHT22;32083;47.360;9.650;2023-07-28T12:37:57;26.10;90.60
46378;DHT22;32083;47.360;9.650;2023-07-28T12:40:25;26.10;90.60
46378;DHT22;32083;47.360;9.650;2023-07-28T12:42:51;26.30;91.40
46378;DHT22;32083;47.360;9.650;2023-07-28T12:45:17;26.60;91.30
46378;DHT22;32083;47.360;9.650;2023-07-28T12:47:43;26.80;90.50
46378;DHT22;32083;47.360;9.650;2023-07-28T12:50:09;26.80;90.20
46378;DHT22;32083;47.360;9.650;2023-07-28T12:52:36;26.90;90.40
46378;DHT22;32083;47.360;9.650;2023-07-28T12:55:02;27.10;91.10
46378;DHT22;32083;47.360;9.650;2023-07-28T12:57:28;27.40;90.50
46378;DHT22;32083;47.360;9.650;2023-07-28T12:59:53;27.70;90.80
46378;DHT22;32083;47.360;9.650;2023-07-28T13:02:19;27.90;89.00
46378;DHT22;32083;47.360;9.650;2023-07-28T13:04:45;27.90;87.50
46378;DHT22;32083;47.360;9.650;2023-07-28T13:07:10;28.00;87.70
46378;DHT22;32083;47.360;9.650;2023-07-28T13:09:36;27.90;90.00
46378;DHT22;32083;47.360;9.650;2023-07-28T13:12:02;27.60;89.00
46378;DHT22;32083;47.360;9.650;2023-07-28T13:14:28;27.20;88.10
46378;DHT22;32083;47.360;9.650;2023-07-28T13:16:54;27.10;88.30
46378;DHT22;32083;47.360;9.650;2023-07-28T13:19:20;27.50;90.10
46378;DHT22;32083;47.360;9.650;2023-07-28T13:21:45;27.80;88.50
46378;DHT22;32083;47.360;9.650;2023-07-28T13:24:11;28.10;87.00
46378;DHT22;32083;47.360;9.650;2023-07-28T13:26:37;28.10;86.10
46378;DHT22;32083;47.360;9.650;2023-07-28T13:29:02;28.20;88.10
46378;DHT22;32083;47.360;9.650;2023-07-28T13:31:32;28.10;86.80
46378;DHT22;32083;47.360;9.650;2023-07-28T13:33:58;28.10;87.50
46378;DHT22;32083;47.360;9.650;2023-07-28T13:36:23;28.30;89.00
46378;DHT22;32083;47.360;9.650;2023-07-28T13:38:49;28.30;86.80
46378;DHT22;32083;47.360;9.650;2023-07-28T13:41:15;28.50;86.30
46378;DHT22;32083;47.360;9.650;2023-07-28T13:43:40;28.60;86.30
46378;DHT22;32083;47.360;9.650;2023-07-28T13:46:07;28.70;87.80
46378;DHT22;32083;47.360;9.650;2023-07-28T13:48:33;28.80;86.60
46378;DHT22;32083;47.360;9.650;2023-07-28T13:50:59;28.70;83.20
46378;DHT22;32083;47.360;9.650;2023-07-28T13:53:25;28.50;84.10
46378;DHT22;32083;47.360;9.650;2023-07-28T13:55:51;28.40;84.80
46378;DHT22;32083;47.360;9.650;2023-07-28T13:58:17;28.30;83.70
46378;DHT22;32083;47.360;9.650;2023-07-28T14:00:43;28.30;85.90
46378;DHT22;32083;47.360;9.650;2023-07-28T14:03:08;28.20;85.20
46378;DHT22;32083;47.360;9.650;2023-07-28T14:05:35;28.40;86.90
46378;DHT22;32083;47.360;9.650;2023-07-28T14:08:03;28.50;87.30
46378;DHT22;32083;47.360;9.650;2023-07-28T14:10:29;28.60;86.50
46378;DHT22;32083;47.360;9.650;2023-07-28T14:12:54;28.70;85.30
46378;DHT22;32083;47.360;9.650;2023-07-28T14:15:20;28.80;84.90
46378;DHT22;32083;47.360;9.650;2023-07-28T14:17:46;29.00;83.70
46378;DHT22;32083;47.360;9.650;2023-07-28T14:20:11;28.90;84.60
46378;DHT22;32083;47.360;9.650;2023-07-28T14:22:37;28.90;86.50
46378;DHT22;32083;47.360;9.650;2023-07-28T14:25:03;28.90;84.60
46378;DHT22;32083;47.360;9.650;2023-07-28T14:27:31;29.10;87.00
46378;DHT22;32083;47.360;9.650;2023-07-28T14:29:57;29.20;84.70
46378;DHT22;32083;47.360;9.650;2023-07-28T14:32:23;29.20;85.50
46378;DHT22;32083;47.360;9.650;2023-07-28T14:34:48;29.10;85.20
46378;DHT22;32083;47.360;9.650;2023-07-28T14:37:14;29.20;85.10
46378;DHT22;32083;47.360;9.650;2023-07-28T14:39:40;29.10;85.10
46378;DHT22;32083;47.360;9.650;2023-07-28T14:42:06;29.00;87.10
46378;DHT22;32083;47.360;9.650;2023-07-28T14:44:33;29.00;86.60
46378;DHT22;32083;47.360;9.650;2023-07-28T14:46:58;29.00;87.20
46378;DHT22;32083;47.360;9.650;2023-07-28T14:49:24;29.00;85.60
46378;DHT22;32083;47.360;9.650;2023-07-28T14:51:56;28.90;86.00
46378;DHT22;32083;47.360;9.650;2023-07-28T14:54:24;28.90;85.60
46378;DHT22;32083;47.360;9.650;2023-07-28T14:56:50;28.80;86.40
46378;DHT22;32083;47.360;9.650;2023-07-28T14:59:18;28.80;84.10
46378;DHT22;32083;47.360;9.650;2023-07-28T15:01:44;28.60;84.20
46378;DHT22;32083;47.360;9.650;2023-07-28T15:04:13;28.60;84.50
46378;DHT22;32083;47.360;9.650;2023-07-28T15:06:40;28.40;86.90
46378;DHT22;32083;47.360;9.650;2023-07-28T15:09:06;28.20;87.90
46378;DHT22;32083;47.360;9.650;2023-07-28T15:11:32;27.90;87.60
46378;DHT22;32083;47.360;9.650;2023-07-28T15:13:58;27.70;88.30
46378;DHT22;32083;47.360;9.650;2023-07-28T15:16:23;27.50;89.20
46378;DHT22;32083;47.360;9.650;2023-07-28T15:18:49;27.30;88.80
46378;DHT22;32083;47.360;9.650;2023-07-28T15:21:15;27.40;89.60
46378;DHT22;32083;47.360;9.650;2023-07-28T15:23:41;27.30;90.10
46378;DHT22;32083;47.360;9.650;2023-07-28T15:26:06;27.30;89.80
46378;DHT22;32083;47.360;9.650;2023-07-28T15:28:32;27.10;88.60
46378;DHT22;32083;47.360;9.650;2023-07-28T15:30:58;26.90;89.50
46378;DHT22;32083;47.360;9.650;2023-07-28T15:33:23;26.80;89.60
46378;DHT22;32083;47.360;9.650;2023-07-28T15:35:54;26.80;89.80
46378;DHT22;32083;47.360;9.650;2023-07-28T15:38:20;26.60;89.30
46378;DHT22;32083;47.360;9.650;2023-07-28T15:40:45;26.60;90.00
46378;DHT22;32083;47.360;9.650;2023-07-28T15:43:11;26.50;90.00
46378;DHT22;32083;47.360;9.650;2023-07-28T15:45:37;26.50;90.30
46378;DHT22;32083;47.360;9.650;2023-07-28T15:48:03;26.30;89.80
46378;DHT22;32083;47.360;9.650;2023-07-28T15:50:28;26.20;90.10
46378;DHT22;32083;47.360;9.650;2023-07-28T15:52:54;26.10;90.10